createdAt,value
2016-12-27T00:03:57.756Z,20.8
2016-12-27T00:09:00.702Z,20.8
2016-12-27T00:14:03.655Z,20.9
2016-12-27T00:19:06.677Z,20.9
2016-12-27T00:24:09.642Z,20.9
2016-12-27T00:29:12.590Z,21
2016-12-27T00:34:15.544Z,21
2016-12-27T00:39:18.505Z,21
2016-12-27T00:44:21.435Z,21.1
2016-12-27T00:49:24.370Z,21.1
2016-12-27T00:54:27.319Z,21.1
2016-12-27T00:59:30.275Z,21.1
2016-12-27T01:04:33.207Z,21.1
2016-12-27T01:09:36.158Z,21.1
2016-12-27T01:14:39.088Z,21.1
2016-12-27T01:19:42.053Z,21.1
2016-12-27T01:24:45.009Z,21.1
2016-12-27T01:29:47.928Z,21.2
2016-12-27T01:34:50.888Z,21.2
2016-12-27T01:39:53.817Z,21.2
2016-12-27T01:44:56.749Z,21.2
2016-12-27T01:49:59.742Z,21.2
2016-12-27T01:55:02.701Z,21.2
2016-12-27T02:00:05.645Z,21.1
2016-12-27T02:05:08.596Z,21.1
2016-12-27T02:10:11.530Z,21.1
2016-12-27T02:15:14.475Z,21.1
2016-12-27T02:20:17.427Z,21.1
2016-12-27T02:25:20.407Z,21.1
2016-12-27T02:30:23.357Z,21.1
2016-12-27T02:35:26.303Z,21.1
2016-12-27T02:40:29.234Z,21.1
2016-12-27T02:45:32.163Z,21.1
2016-12-27T02:50:35.115Z,21.1
2016-12-27T02:55:38.044Z,21.1
2016-12-27T03:00:40.985Z,21.1
2016-12-27T03:05:43.935Z,21.1
2016-12-27T03:10:46.883Z,21.1
2016-12-27T03:15:49.819Z,21.1
2016-12-27T03:20:52.769Z,21.1
2016-12-27T03:25:55.709Z,21.1
2016-12-27T03:30:59.191Z,21.1
2016-12-27T03:36:02.132Z,21.1
2016-12-27T03:41:05.058Z,21.1
2016-12-27T03:46:07.988Z,21.1
2016-12-27T03:51:10.931Z,21.1
2016-12-27T03:56:13.876Z,21.1
2016-12-27T04:01:16.820Z,21.1
2016-12-27T04:06:19.770Z,21.1
2016-12-27T04:11:22.700Z,21.1
2016-12-27T04:16:25.640Z,21.1
2016-12-27T04:21:28.572Z,21.1
2016-12-27T04:26:31.506Z,21.1
2016-12-27T04:31:34.456Z,21.1
2016-12-27T04:36:37.395Z,21.1
2016-12-27T04:41:40.342Z,21.2
2016-12-27T04:46:43.300Z,21.2
2016-12-27T04:51:46.251Z,21.2
2016-12-27T04:56:49.185Z,21.2
2016-12-27T05:01:52.144Z,21.2
2016-12-27T05:06:55.097Z,21.2
2016-12-27T05:11:58.036Z,21.2
2016-12-27T05:17:00.986Z,21.2
2016-12-27T05:22:03.921Z,21.2
2016-12-27T05:27:06.857Z,21.1
2016-12-27T05:32:09.803Z,21.1
2016-12-27T05:37:12.741Z,21.1
2016-12-27T05:42:15.685Z,21.1
2016-12-27T05:47:18.634Z,21.1
2016-12-27T05:52:21.578Z,21.1
2016-12-27T05:57:24.528Z,21.1
2016-12-27T06:02:27.460Z,21.1
2016-12-27T06:07:30.399Z,21.1
2016-12-27T06:12:33.368Z,21
2016-12-27T06:17:36.306Z,21.1
2016-12-27T06:22:39.246Z,21
2016-12-27T06:27:42.203Z,21
2016-12-27T06:32:45.142Z,21
2016-12-27T06:37:48.105Z,21
2016-12-27T06:42:51.031Z,21
2016-12-27T06:47:53.958Z,21
2016-12-27T06:52:56.935Z,21
2016-12-27T06:57:59.858Z,21
2016-12-27T07:03:02.813Z,21
2016-12-27T07:08:05.769Z,21
2016-12-27T07:13:08.695Z,21
2016-12-27T07:18:11.631Z,21
2016-12-27T07:23:14.569Z,21
2016-12-27T07:28:17.529Z,21
2016-12-27T07:33:20.469Z,21
2016-12-27T07:38:23.396Z,21
2016-12-27T07:43:26.331Z,21
2016-12-27T07:48:29.264Z,21
2016-12-27T07:53:32.195Z,21.1
2016-12-27T07:58:35.132Z,21.1
2016-12-27T08:03:38.099Z,21.1
2016-12-27T08:08:41.053Z,21.1
2016-12-27T08:13:43.987Z,21.2
2016-12-27T08:18:46.941Z,21.2
2016-12-27T08:23:49.890Z,21.2
2016-12-27T08:28:52.826Z,21.2
2016-12-27T08:33:55.770Z,21.2
2016-12-27T08:39:23.908Z,21.2
2016-12-27T08:44:27.035Z,21.5
2016-12-27T08:49:30.592Z,21.1
2016-12-27T08:54:33.707Z,21
2016-12-27T08:59:36.646Z,20.9
2016-12-27T09:04:39.751Z,20.9
2016-12-27T09:09:42.708Z,20.9
2016-12-27T09:14:45.654Z,20.7
2016-12-27T09:19:48.660Z,20.5
2016-12-27T09:24:51.600Z,20.5
2016-12-27T09:29:54.552Z,20.4
2016-12-27T09:34:57.507Z,20.3
2016-12-27T09:40:00.483Z,20.3
2016-12-27T09:45:03.432Z,20.3
2016-12-27T09:50:06.382Z,20.3
2016-12-27T09:55:09.323Z,20.4
2016-12-27T10:00:12.249Z,21.1
2016-12-27T10:05:15.160Z,21.2
2016-12-27T10:10:18.091Z,21.3
2016-12-27T10:15:21.032Z,21.9
2016-12-27T10:20:23.951Z,24
2016-12-27T10:25:26.908Z,24.4
2016-12-27T10:26:45.451Z,24.3
2016-12-27T10:27:25.821Z,24.2
2016-12-27T10:32:28.974Z,23.6
2016-12-27T10:37:31.939Z,22.9
2016-12-27T10:42:34.986Z,22.6
2016-12-27T10:47:38.013Z,22.3
2016-12-27T10:52:40.968Z,22.1
2016-12-27T14:17:30.294Z,20.3
2016-12-27T14:17:48.072Z,20.3
2016-12-27T14:22:51.070Z,20.5
2016-12-27T14:27:54.384Z,20.7
2016-12-27T14:32:58.229Z,20.7
2016-12-27T14:38:02.708Z,20.8
2016-12-27T14:43:06.897Z,20.9
2016-12-27T14:48:09.913Z,21
2016-12-27T14:53:12.789Z,21
2016-12-27T17:49:31.329Z,21
2016-12-27T17:49:49.142Z,21
2016-12-27T17:54:52.042Z,21.2
2016-12-27T17:59:54.922Z,21.5
2016-12-27T18:04:57.807Z,21.6
2016-12-27T18:10:01.031Z,21.8
2016-12-27T22:48:39.797Z,21.3
2016-12-27T22:53:43.001Z,21.4
2016-12-27T22:58:46.144Z,21.5
2016-12-27T23:03:49.279Z,21.4
2016-12-27T23:09:35.841Z,21.4
2016-12-27T23:14:40.351Z,21.4
2016-12-27T23:19:43.480Z,21.4
2016-12-27T23:24:46.784Z,21.4
2016-12-27T23:29:49.909Z,21.4
2016-12-27T23:30:09.728Z,21.4
